sensor_id;sensor_type;location;lat;lon;timestamp;temperature;humidity
42743;DHT22;28397;44.552;-0.848;2023-06-10T00:01:45;21.00;99.90
42743;DHT22;28397;44.552;-0.848;2023-06-10T00:04:15;21.00;99.90
42743;DHT22;28397;44.552;-0.848;2023-06-10T00:06:44;21.10;99.90
42743;DHT22;28397;44.552;-0.848;2023-06-10T00:09:10;21.10;99.90
42743;DHT22;28397;44.552;-0.848;2023-06-10T00:11:37;21.10;99.90
42743;DHT22;28397;44.552;-0.848;2023-06-10T00:14:03;21.00;99.90
42743;DHT22;28397;44.552;-0.848;2023-06-10T00:16:28;21.10;99.90
42743;DHT22;28397;44.552;-0.848;2023-06-10T00:18:54;21.10;99.90
42743;DHT22;28397;44.552;-0.848;2023-06-10T00:21:30;21.10;99.90
42743;DHT22;28397;44.552;-0.848;2023-06-10T00:24:06;21.00;99.90
42743;DHT22;28397;44.552;-0.848;2023-06-10T00:26:38;21.00;99.90
42743;DHT22;28397;44.552;-0.848;2023-06-10T00:29:03;21.00;99.90
42743;DHT22;28397;44.552;-0.848;2023-06-10T00:31:29;21.00;99.90
42743;DHT22;28397;44.552;-0.848;2023-06-10T00:33:55;21.00;99.90
42743;DHT22;28397;44.552;-0.848;2023-06-10T00:36:21;21.00;99.90
42743;DHT22;28397;44.552;-0.848;2023-06-10T00:38:47;21.00;99.90
42743;DHT22;28397;44.552;-0.848;2023-06-10T00:41:13;20.90;99.90
42743;DHT22;28397;44.552;-0.848;2023-06-10T00:43:39;20.90;99.90
42743;DHT22;28397;44.552;-0.848;2023-06-10T00:46:05;20.90;99.90
42743;DHT22;28397;44.552;-0.848;2023-06-10T00:48:31;20.90;99.90
42743;DHT22;28397;44.552;-0.848;2023-06-10T00:50:57;20.90;99.90
42743;DHT22;28397;44.552;-0.848;2023-06-10T00:53:25;20.90;99.90
42743;DHT22;28397;44.552;-0.848;2023-06-10T00:55:51;20.80;99.90
42743;DHT22;28397;44.552;-0.848;2023-06-10T00:58:17;20.80;99.90
42743;DHT22;28397;44.552;-0.848;2023-06-10T01:00:43;20.80;99.90
42743;DHT22;28397;44.552;-0.848;2023-06-10T01:03:10;20.70;99.90
42743;DHT22;28397;44.552;-0.848;2023-06-10T01:05:38;20.70;99.90
42743;DHT22;28397;44.552;-0.848;2023-06-10T01:08:33;20.70;99.90
42743;DHT22;28397;44.552;-0.848;2023-06-10T01:11:01;20.60;99.90
42743;DHT22;28397;44.552;-0.848;2023-06-10T01:13:29;20.60;99.90
42743;DHT22;28397;44.552;-0.848;2023-06-10T01:15:58;20.60;99.90
42743;DHT22;28397;44.552;-0.848;2023-06-10T01:18:30;20.60;99.90
42743;DHT22;28397;44.552;-0.848;2023-06-10T01:20:56;20.60;99.90
42743;DHT22;28397;44.552;-0.848;2023-06-10T01:23:23;20.60;99.90
42743;DHT22;28397;44.552;-0.848;2023-06-10T01:26:10;20.50;99.90
42743;DHT22;28397;44.552;-0.848;2023-06-10T01:28:44;20.50;99.90
42743;DHT22;28397;44.552;-0.848;2023-06-10T01:34:11;20.40;99.90
42743;DHT22;28397;44.552;-0.848;2023-06-10T01:36:38;20.40;99.90
42743;DHT22;28397;44.552;-0.848;2023-06-10T01:39:06;20.30;99.90
42743;DHT22;28397;44.552;-0.848;2023-06-10T01:41:34;20.30;99.90
42743;DHT22;28397;44.552;-0.848;2023-06-10T01:44:00;20.30;99.90
42743;DHT22;28397;44.552;-0.848;2023-06-10T01:46:26;20.20;99.90
42743;DHT22;28397;44.552;-0.848;2023-06-10T01:48:52;20.20;99.90
42743;DHT22;28397;44.552;-0.848;2023-06-10T01:51:17;20.20;99.90
42743;DHT22;28397;44.552;-0.848;2023-06-10T01:53:43;20.10;99.90
42743;DHT22;28397;44.552;-0.848;2023-06-10T01:56:09;20.10;99.90
42743;DHT22;28397;44.552;-0.848;2023-06-10T01:58:35;20.10;99.90
42743;DHT22;28397;44.552;-0.848;2023-06-10T02:01:01;20.10;99.90
42743;DHT22;28397;44.552;-0.848;2023-06-10T02:03:26;20.00;99.90
42743;DHT22;28397;44.552;-0.848;2023-06-10T02:05:52;20.00;99.90
42743;DHT22;28397;44.552;-0.848;2023-06-10T02:08:18;20.00;99.90
42743;DHT22;28397;44.552;-0.848;2023-06-10T02:10:43;20.00;99.90
42743;DHT22;28397;44.552;-0.848;2023-06-10T02:13:09;20.00;99.90
42743;DHT22;28397;44.552;-0.848;2023-06-10T02:15:35;20.10;99.90
42743;DHT22;28397;44.552;-0.848;2023-06-10T02:18:00;20.10;99.90
42743;DHT22;28397;44.552;-0.848;2023-06-10T02:20:26;20.10;99.90
42743;DHT22;28397;44.552;-0.848;2023-06-10T02:22:52;20.10;99.90
42743;DHT22;28397;44.552;-0.848;2023-06-10T02:25:18;20.20;99.90
42743;DHT22;28397;44.552;-0.848;2023-06-10T02:27:43;20.20;99.90
42743;DHT22;28397;44.552;-0.848;2023-06-10T02:30:10;20.20;99.90
42743;DHT22;28397;44.552;-0.848;2023-06-10T02:32:36;20.30;99.90
42743;DHT22;28397;44.552;-0.848;2023-06-10T02:35:01;20.30;99.90
42743;DHT22;28397;44.552;-0.848;2023-06-10T02:37:27;20.30;99.90
42743;DHT22;28397;44.552;-0.848;2023-06-10T02:39:53;20.20;99.90
42743;DHT22;28397;44.552;-0.848;2023-06-10T02:42:18;20.20;99.90
42743;DHT22;28397;44.552;-0.848;2023-06-10T02:44:44;20.30;99.90
42743;DHT22;28397;44.552;-0.848;2023-06-10T02:47:10;20.20;99.90
42743;DHT22;28397;44.552;-0.848;2023-06-10T02:49:36;20.20;99.90
42743;DHT22;28397;44.552;-0.848;2023-06-10T02:52:02;20.30;99.90
42743;DHT22;28397;44.552;-0.848;2023-06-10T02:54:27;20.20;99.90
42743;DHT22;28397;44.552;-0.848;2023-06-10T02:56:53;20.30;99.90
42743;DHT22;28397;44.552;-0.848;2023-06-10T02:59:21;20.40;99.90
42743;DHT22;28397;44.552;-0.848;2023-06-10T03:01:47;20.40;99.90
42743;DHT22;28397;44.552;-0.848;2023-06-10T03:04:12;20.40;99.90
42743;DHT22;28397;44.552;-0.848;2023-06-10T03:06:40;20.40;99.90
42743;DHT22;28397;44.552;-0.848;2023-06-10T03:09:09;20.40;99.90
42743;DHT22;28397;44.552;-0.848;2023-06-10T03:11:35;20.40;99.90
42743;DHT22;28397;44.552;-0.848;2023-06-10T03:14:01;20.30;99.90
42743;DHT22;28397;44.552;-0.848;2023-06-10T03:16:26;20.30;99.90
42743;DHT22;28397;44.552;-0.848;2023-06-10T03:18:52;20.30;99.90
42743;DHT22;28397;44.552;-0.848;2023-06-10T03:21:18;20.20;99.90
42743;DHT22;28397;44.552;-0.848;2023-06-10T03:23:45;20.20;99.90
42743;DHT22;28397;44.552;-0.848;2023-06-10T03:26:11;20.10;99.90
42743;DHT22;28397;44.552;-0.848;2023-06-10T03:28:38;20.10;99.90
42743;DHT22;28397;44.552;-0.848;2023-06-10T03:31:03;20.00;99.90
42743;DHT22;28397;44.552;-0.848;2023-06-10T03:33:29;20.00;99.90
42743;DHT22;28397;44.552;-0.848;2023-06-10T03:35:55;20.00;99.90
42743;DHT22;28397;44.552;-0.848;2023-06-10T03:38:21;20.00;99.90
42743;DHT22;28397;44.552;-0.848;2023-06-10T03:40:47;19.90;99.90
42743;DHT22;28397;44.552;-0.848;2023-06-10T03:43:13;20.00;99.90
42743;DHT22;28397;44.552;-0.848;2023-06-10T03:45:38;20.00;99.90
42743;DHT22;28397;44.552;-0.848;2023-06-10T03:48:04;19.90;99.90
42743;DHT22;28397;44.552;-0.848;2023-06-10T03:50:31;19.90;99.90
42743;DHT22;28397;44.552;-0.848;2023-06-10T03:52:58;19.90;99.90
42743;DHT22;28397;44.552;-0.848;2023-06-10T03:55:23;19.80;99.90
42743;DHT22;28397;44.552;-0.848;2023-06-10T03:57:49;19.80;99.90
42743;DHT22;28397;44.552;-0.848;2023-06-10T04:00:16;19.80;99.90
42743;DHT22;28397;44.552;-0.848;2023-06-10T04:02:43;19.80;99.90
42743;DHT22;28397;44.552;-0.848;2023-06-10T04:05:15;19.80;99.90
42743;DHT22;28397;44.552;-0.848;2023-06-10T04:07:42;19.80;99.90
42743;DHT22;28397;44.552;-0.848;2023-06-10T04:10:08;19.70;99.90
42743;DHT22;28397;44.552;-0.848;2023-06-10T04:12:35;19.60;99.90
42743;DHT22;28397;44.552;-0.848;2023-06-10T04:15:01;19.60;99.90
42743;DHT22;28397;44.552;-0.848;2023-06-10T04:17:27;19.60;99.90
42743;DHT22;28397;44.552;-0.848;2023-06-10T04:19:53;19.50;99.90
42743;DHT22;28397;44.552;-0.848;2023-06-10T04:22:20;19.50;99.90
42743;DHT22;28397;44.552;-0.848;2023-06-10T04:24:46;19.50;99.90
42743;DHT22;28397;44.552;-0.848;2023-06-10T04:27:11;19.60;99.90
42743;DHT22;28397;44.552;-0.848;2023-06-10T04:29:37;19.50;99.90
42743;DHT22;28397;44.552;-0.848;2023-06-10T04:32:03;19.50;99.90
42743;DHT22;28397;44.552;-0.848;2023-06-10T04:34:31;19.50;99.90
42743;DHT22;28397;44.552;-0.848;2023-06-10T04:36:56;19.40;99.90
42743;DHT22;28397;44.552;-0.848;2023-06-10T04:39:22;19.40;99.90
42743;DHT22;28397;44.552;-0.848;2023-06-10T04:41:48;19.40;99.90
42743;DHT22;28397;44.552;-0.848;2023-06-10T04:44:14;19.40;99.90
42743;DHT22;28397;44.552;-0.848;2023-06-10T04:46:39;19.30;99.90
42743;DHT22;28397;44.552;-0.848;2023-06-10T04:49:05;19.30;99.90
42743;DHT22;28397;44.552;-0.848;2023-06-10T04:51:31;19.30;99.90
42743;DHT22;28397;44.552;-0.848;2023-06-10T04:53:58;19.30;99.90
42743;DHT22;28397;44.552;-0.848;2023-06-10T04:56:23;19.30;99.90
42743;DHT22;28397;44.552;-0.848;2023-06-10T04:58:49;19.20;99.90
42743;DHT22;28397;44.552;-0.848;2023-06-10T05:01:15;19.20;99.90
42743;DHT22;28397;44.552;-0.848;2023-06-10T05:03:41;19.20;99.90
42743;DHT22;28397;44.552;-0.848;2023-06-10T05:06:07;19.30;99.90
42743;DHT22;28397;44.552;-0.848;2023-06-10T05:08:33;19.20;99.90
42743;DHT22;28397;44.552;-0.848;2023-06-10T05:10:59;19.30;99.90
42743;DHT22;28397;44.552;-0.848;2023-06-10T05:13:24;19.30;99.90
42743;DHT22;28397;44.552;-0.848;2023-06-10T05:15:50;19.30;99.90
42743;DHT22;28397;44.552;-0.848;2023-06-10T05:18:16;19.30;99.90
42743;DHT22;28397;44.552;-0.848;2023-06-10T05:20:42;19.30;99.90
42743;DHT22;28397;44.552;-0.848;2023-06-10T05:23:07;19.40;99.90
42743;DHT22;28397;44.552;-0.848;2023-06-10T05:25:33;19.40;99.90
42743;DHT22;28397;44.552;-0.848;2023-06-10T05:27:59;19.50;99.90
42743;DHT22;28397;44.552;-0.848;2023-06-10T05:30:25;19.50;99.90
42743;DHT22;28397;44.552;-0.848;2023-06-10T05:32:52;19.50;99.90
42743;DHT22;28397;44.552;-0.848;2023-06-10T05:35:18;19.60;99.90
42743;DHT22;28397;44.552;-0.848;2023-06-10T05:37:44;19.70;99.90
42743;DHT22;28397;44.552;-0.848;2023-06-10T05:40:10;19.80;99.90
42743;DHT22;28397;44.552;-0.848;2023-06-10T05:42:36;19.90;99.90
42743;DHT22;28397;44.552;-0.848;2023-06-10T05:45:02;19.90;99.90
42743;DHT22;28397;44.552;-0.848;2023-06-10T05:47:28;20.00;99.90
42743;DHT22;28397;44.552;-0.848;2023-06-10T05:49:54;20.00;99.90
42743;DHT22;28397;44.552;-0.848;2023-06-10T05:52:19;20.10;99.90
42743;DHT22;28397;44.552;-0.848;2023-06-10T05:54:45;20.10;99.90
42743;DHT22;28397;44.552;-0.848;2023-06-10T05:57:11;20.20;99.90
42743;DHT22;28397;44.552;-0.848;2023-06-10T05:59:37;20.30;99.90
42743;DHT22;28397;44.552;-0.848;2023-06-10T06:02:02;20.40;99.90
42743;DHT22;28397;44.552;-0.848;2023-06-10T06:04:28;20.40;99.90
42743;DHT22;28397;44.552;-0.848;2023-06-10T06:06:54;20.50;99.90
42743;DHT22;28397;44.552;-0.848;2023-06-10T06:09:20;20.50;99.90
42743;DHT22;28397;44.552;-0.848;2023-06-10T06:11:46;20.50;99.90
42743;DHT22;28397;44.552;-0.848;2023-06-10T06:14:12;20.60;99.90
42743;DHT22;28397;44.552;-0.848;2023-06-10T06:16:38;20.60;99.90
42743;DHT22;28397;44.552;-0.848;2023-06-10T06:19:04;20.60;99.90
42743;DHT22;28397;44.552;-0.848;2023-06-10T06:21:29;20.70;99.90
42743;DHT22;28397;44.552;-0.848;2023-06-10T06:23:55;20.70;99.90
42743;DHT22;28397;44.552;-0.848;2023-06-10T06:26:21;20.70;99.90
42743;DHT22;28397;44.552;-0.848;2023-06-10T06:28:47;20.70;99.90
42743;DHT22;28397;44.552;-0.848;2023-06-10T06:31:12;20.80;99.90
42743;DHT22;28397;44.552;-0.848;2023-06-10T06:33:38;20.80;99.90
42743;DHT22;28397;44.552;-0.848;2023-06-10T06:36:04;20.80;99.90
42743;DHT22;28397;44.552;-0.848;2023-06-10T06:38:29;20.80;99.90
42743;DHT22;28397;44.552;-0.848;2023-06-10T06:40:55;20.90;99.90
42743;DHT22;28397;44.552;-0.848;2023-06-10T06:43:21;20.90;99.90
42743;DHT22;28397;44.552;-0.848;2023-06-10T06:45:46;21.00;99.90
42743;DHT22;28397;44.552;-0.848;2023-06-10T06:48:12;21.00;99.90
42743;DHT22;28397;44.552;-0.848;2023-06-10T06:50:38;21.10;99.90
42743;DHT22;28397;44.552;-0.848;2023-06-10T06:53:05;21.10;99.90
42743;DHT22;28397;44.552;-0.848;2023-06-10T06:55:31;21.10;99.90
42743;DHT22;28397;44.552;-0.848;2023-06-10T06:57:56;21.20;99.90
42743;DHT22;28397;44.552;-0.848;2023-06-10T07:00:22;21.10;99.90
42743;DHT22;28397;44.552;-0.848;2023-06-10T07:02:48;21.20;99.90
42743;DHT22;28397;44.552;-0.848;2023-06-10T07:05:14;21.20;99.90
42743;DHT22;28397;44.552;-0.848;2023-06-10T07:07:40;21.20;99.90
42743;DHT22;28397;44.552;-0.848;2023-06-10T07:10:06;21.20;99.90
42743;DHT22;28397;44.552;-0.848;2023-06-10T07:12:32;21.20;99.90
42743;DHT22;28397;44.552;-0.848;2023-06-10T07:14:57;21.20;99.90
42743;DHT22;28397;44.552;-0.848;2023-06-10T07:17:23;21.30;99.90
42743;DHT22;28397;44.552;-0.848;2023-06-10T07:19:48;21.30;99.90
42743;DHT22;28397;44.552;-0.848;2023-06-10T07:22:15;21.40;99.90
42743;DHT22;28397;44.552;-0.848;2023-06-10T07:24:40;21.40;99.90
42743;DHT22;28397;44.552;-0.848;2023-06-10T07:27:06;21.40;99.90
42743;DHT22;28397;44.552;-0.848;2023-06-10T07:29:32;21.50;99.90
42743;DHT22;28397;44.552;-0.848;2023-06-10T07:31:58;21.50;99.90
42743;DHT22;28397;44.552;-0.848;2023-06-10T07:34:24;21.60;99.90
42743;DHT22;28397;44.552;-0.848;2023-06-10T07:36:49;21.70;99.90
42743;DHT22;28397;44.552;-0.848;2023-06-10T07:39:15;21.70;99.90
42743;DHT22;28397;44.552;-0.848;2023-06-10T07:41:41;21.90;99.90
42743;DHT22;28397;44.552;-0.848;2023-06-10T07:44:06;21.90;99.90
42743;DHT22;28397;44.552;-0.848;2023-06-10T07:46:32;21.90;99.90
42743;DHT22;28397;44.552;-0.848;2023-06-10T07:48:58;21.90;99.90
42743;DHT22;28397;44.552;-0.848;2023-06-10T07:51:23;22.00;99.90
42743;DHT22;28397;44.552;-0.848;2023-06-10T07:53:49;22.00;99.90
42743;DHT22;28397;44.552;-0.848;2023-06-10T07:56:15;22.00;99.90
42743;DHT22;28397;44.552;-0.848;2023-06-10T07:58:40;22.10;99.90
42743;DHT22;28397;44.552;-0.848;2023-06-10T08:01:06;22.10;99.90
42743;DHT22;28397;44.552;-0.848;2023-06-10T08:03:32;22.10;99.90
42743;DHT22;28397;44.552;-0.848;2023-06-10T08:05:58;22.20;99.90
42743;DHT22;28397;44.552;-0.848;2023-06-10T08:08:24;22.20;99.90
42743;DHT22;28397;44.552;-0.848;2023-06-10T08:10:50;22.20;99.90
42743;DHT22;28397;44.552;-0.848;2023-06-10T08:13:15;22.20;99.90
42743;DHT22;28397;44.552;-0.848;2023-06-10T08:15:41;22.30;99.90
42743;DHT22;28397;44.552;-0.848;2023-06-10T08:18:07;22.30;99.90
42743;DHT22;28397;44.552;-0.848;2023-06-10T08:20:32;22.30;99.90
42743;DHT22;28397;44.552;-0.848;2023-06-10T08:22:58;22.30;99.90
42743;DHT22;28397;44.552;-0.848;2023-06-10T08:25:24;22.40;99.90
42743;DHT22;28397;44.552;-0.848;2023-06-10T08:27:49;22.40;99.90
42743;DHT22;28397;44.552;-0.848;2023-06-10T08:30:17;22.40;99.90
42743;DHT22;28397;44.552;-0.848;2023-06-10T08:32:43;22.40;99.90
42743;DHT22;28397;44.552;-0.848;2023-06-10T08:35:09;22.50;99.90
42743;DHT22;28397;44.552;-0.848;2023-06-10T08:37:34;22.50;99.90
42743;DHT22;28397;44.552;-0.848;2023-06-10T08:40:00;22.60;99.90
42743;DHT22;28397;44.552;-0.848;2023-06-10T08:42:36;22.60;99.90
42743;DHT22;28397;44.552;-0.848;2023-06-10T08:45:03;22.70;99.90
42743;DHT22;28397;44.552;-0.848;2023-06-10T08:47:34;22.80;99.90
42743;DHT22;28397;44.552;-0.848;2023-06-10T08:50:04;22.80;99.90
42743;DHT22;28397;44.552;-0.848;2023-06-10T08:52:35;22.90;99.90
42743;DHT22;28397;44.552;-0.848;2023-06-10T08:55:11;22.90;99.90
42743;DHT22;28397;44.552;-0.848;2023-06-10T08:57:37;23.00;99.90
42743;DHT22;28397;44.552;-0.848;2023-06-10T09:00:05;23.00;99.90
42743;DHT22;28397;44.552;-0.848;2023-06-10T09:02:31;23.00;99.90
42743;DHT22;28397;44.552;-0.848;2023-06-10T09:05:00;23.00;99.90
42743;DHT22;28397;44.552;-0.848;2023-06-10T09:07:29;23.00;99.90
42743;DHT22;28397;44.552;-0.848;2023-06-10T09:09:57;23.00;99.90
42743;DHT22;28397;44.552;-0.848;2023-06-10T09:12:24;23.00;99.90
42743;DHT22;28397;44.552;-0.848;2023-06-10T09:14:50;23.10;99.90
42743;DHT22;28397;44.552;-0.848;2023-06-10T09:17:16;23.20;99.90
42743;DHT22;28397;44.552;-0.848;2023-06-10T09:19:44;23.20;99.90
42743;DHT22;28397;44.552;-0.848;2023-06-10T09:22:11;23.30;99.90
42743;DHT22;28397;44.552;-0.848;2023-06-10T09:24:37;23.40;99.90
42743;DHT22;28397;44.552;-0.848;2023-06-10T09:27:06;23.50;99.90
42743;DHT22;28397;44.552;-0.848;2023-06-10T09:32:10;23.50;99.90
42743;DHT22;28397;44.552;-0.848;2023-06-10T09:34:36;23.50;99.90
42743;DHT22;28397;44.552;-0.848;2023-06-10T09:37:02;23.50;99.90
42743;DHT22;28397;44.552;-0.848;2023-06-10T09:39:28;23.60;99.90
42743;DHT22;28397;44.552;-0.848;2023-06-10T09:41:53;23.50;99.90
42743;DHT22;28397;44.552;-0.848;2023-06-10T09:44:20;23.50;99.90
42743;DHT22;28397;44.552;-0.848;2023-06-10T09:46:50;23.50;99.90
42743;DHT22;28397;44.552;-0.848;2023-06-10T09:49:19;23.50;99.90
42743;DHT22;28397;44.552;-0.848;2023-06-10T09:51:54;23.50;99.90
42743;DHT22;28397;44.552;-0.848;2023-06-10T09:54:21;23.60;99.90
42743;DHT22;28397;44.552;-0.848;2023-06-10T09:56:47;23.70;99.90
42743;DHT22;28397;44.552;-0.848;2023-06-10T09:59:13;23.80;99.90
42743;DHT22;28397;44.552;-0.848;2023-06-10T10:01:39;23.90;99.90
42743;DHT22;28397;44.552;-0.848;2023-06-10T10:04:05;23.90;99.90
42743;DHT22;28397;44.552;-0.848;2023-06-10T10:06:31;23.90;99.90
42743;DHT22;28397;44.552;-0.848;2023-06-10T10:08:57;23.90;99.90
42743;DHT22;28397;44.552;-0.848;2023-06-10T10:11:24;23.90;99.90
42743;DHT22;28397;44.552;-0.848;2023-06-10T10:13:51;24.00;99.90
42743;DHT22;28397;44.552;-0.848;2023-06-10T10:16:41;24.00;99.90
42743;DHT22;28397;44.552;-0.848;2023-06-10T10:19:32;24.00;99.90
42743;DHT22;28397;44.552;-0.848;2023-06-10T10:22:08;24.10;99.90
42743;DHT22;28397;44.552;-0.848;2023-06-10T10:24:51;24.00;99.90
42743;DHT22;28397;44.552;-0.848;2023-06-10T10:27:24;24.10;99.90
42743;DHT22;28397;44.552;-0.848;2023-06-10T10:29:52;24.20;99.90
42743;DHT22;28397;44.552;-0.848;2023-06-10T10:32:24;24.20;99.90
42743;DHT22;28397;44.552;-0.848;2023-06-10T10:35:08;24.30;99.90
42743;DHT22;28397;44.552;-0.848;2023-06-10T10:37:35;24.40;99.90
42743;DHT22;28397;44.552;-0.848;2023-06-10T10:40:02;24.40;99.90
42743;DHT22;28397;44.552;-0.848;2023-06-10T10:42:29;24.50;99.90
42743;DHT22;28397;44.552;-0.848;2023-06-10T10:44:55;24.50;99.90
42743;DHT22;28397;44.552;-0.848;2023-06-10T10:47:22;24.60;99.90
42743;DHT22;28397;44.552;-0.848;2023-06-10T10:49:52;24.60;99.90
42743;DHT22;28397;44.552;-0.848;2023-06-10T10:52:21;24.70;99.90
42743;DHT22;28397;44.552;-0.848;2023-06-10T10:54:47;24.80;99.90
42743;DHT22;28397;44.552;-0.848;2023-06-10T10:57:23;24.90;99.90
42743;DHT22;28397;44.552;-0.848;2023-06-10T11:02:18;25.00;99.90
42743;DHT22;28397;44.552;-0.848;2023-06-10T11:04:46;25.10;99.90
42743;DHT22;28397;44.552;-0.848;2023-06-10T11:07:12;25.10;99.90
42743;DHT22;28397;44.552;-0.848;2023-06-10T11:12:54;25.20;99.90
42743;DHT22;28397;44.552;-0.848;2023-06-10T11:15:26;25.30;99.90
42743;DHT22;28397;44.552;-0.848;2023-06-10T11:23:44;25.40;99.90
42743;DHT22;28397;44.552;-0.848;2023-06-10T11:26:14;25.50;99.90
42743;DHT22;28397;44.552;-0.848;2023-06-10T11:29:04;25.60;99.90
42743;DHT22;28397;44.552;-0.848;2023-06-10T11:31:38;25.70;99.90
42743;DHT22;28397;44.552;-0.848;2023-06-10T11:34:05;25.80;99.90
42743;DHT22;28397;44.552;-0.848;2023-06-10T11:36:34;25.80;99.90
42743;DHT22;28397;44.552;-0.848;2023-06-10T11:39:05;25.90;99.90
42743;DHT22;28397;44.552;-0.848;2023-06-10T11:41:31;26.00;99.90
42743;DHT22;28397;44.552;-0.848;2023-06-10T11:44:07;26.10;99.90
42743;DHT22;28397;44.552;-0.848;2023-06-10T11:46:34;26.10;99.90
42743;DHT22;28397;44.552;-0.848;2023-06-10T11:49:00;26.00;99.90
42743;DHT22;28397;44.552;-0.848;2023-06-10T11:51:36;26.10;99.90
42743;DHT22;28397;44.552;-0.848;2023-06-10T11:54:03;26.30;99.90
42743;DHT22;28397;44.552;-0.848;2023-06-10T11:56:30;26.10;99.90
42743;DHT22;28397;44.552;-0.848;2023-06-10T11:59:04;26.10;99.90
42743;DHT22;28397;44.552;-0.848;2023-06-10T12:01:35;26.20;99.90
42743;DHT22;28397;44.552;-0.848;2023-06-10T12:04:06;26.20;99.90
42743;DHT22;28397;44.552;-0.848;2023-06-10T12:06:43;26.20;99.90
42743;DHT22;28397;44.552;-0.848;2023-06-10T12:09:23;26.30;99.90
42743;DHT22;28397;44.552;-0.848;2023-06-10T12:17:37;26.30;99.90
42743;DHT22;28397;44.552;-0.848;2023-06-10T12:20:07;26.30;99.90
42743;DHT22;28397;44.552;-0.848;2023-06-10T12:22:41;26.40;99.90
42743;DHT22;28397;44.552;-0.848;2023-06-10T12:25:08;26.40;99.90
42743;DHT22;28397;44.552;-0.848;2023-06-10T12:27:34;26.50;99.90
42743;DHT22;28397;44.552;-0.848;2023-06-10T12:30:02;26.50;99.90
42743;DHT22;28397;44.552;-0.848;2023-06-10T12:32:40;26.50;99.90
42743;DHT22;28397;44.552;-0.848;2023-06-10T12:35:07;26.60;99.90
42743;DHT22;28397;44.552;-0.848;2023-06-10T12:37:34;26.70;99.90
42743;DHT22;28397;44.552;-0.848;2023-06-10T12:40:03;26.80;99.90
42743;DHT22;28397;44.552;-0.848;2023-06-10T12:42:30;26.90;99.90
42743;DHT22;28397;44.552;-0.848;2023-06-10T12:44:57;27.10;99.90
42743;DHT22;28397;44.552;-0.848;2023-06-10T12:47:33;27.20;99.90
42743;DHT22;28397;44.552;-0.848;2023-06-10T12:50:00;27.50;99.90
42743;DHT22;28397;44.552;-0.848;2023-06-10T12:52:27;27.70;99.90
42743;DHT22;28397;44.552;-0.848;2023-06-10T12:54:53;27.70;99.90
42743;DHT22;28397;44.552;-0.848;2023-06-10T12:57:23;27.80;99.90
42743;DHT22;28397;44.552;-0.848;2023-06-10T12:59:49;27.90;99.90
42743;DHT22;28397;44.552;-0.848;2023-06-10T13:02:25;27.70;99.90
42743;DHT22;28397;44.552;-0.848;2023-06-10T13:04:51;27.70;99.90
42743;DHT22;28397;44.552;-0.848;2023-06-10T13:07:17;27.80;99.90
42743;DHT22;28397;44.552;-0.848;2023-06-10T13:09:43;27.60;99.90
42743;DHT22;28397;44.552;-0.848;2023-06-10T13:12:09;27.70;99.90
42743;DHT22;28397;44.552;-0.848;2023-06-10T13:14:36;27.80;99.90
42743;DHT22;28397;44.552;-0.848;2023-06-10T13:17:03;28.00;99.90
42743;DHT22;28397;44.552;-0.848;2023-06-10T13:19:31;28.20;99.90
42743;DHT22;28397;44.552;-0.848;2023-06-10T13:21:57;28.20;99.90
42743;DHT22;28397;44.552;-0.848;2023-06-10T13:24:23;28.40;99.90
42743;DHT22;28397;44.552;-0.848;2023-06-10T13:26:49;28.40;99.90
42743;DHT22;28397;44.552;-0.848;2023-06-10T13:29:14;28.60;99.90
42743;DHT22;28397;44.552;-0.848;2023-06-10T13:31:41;28.50;99.90
42743;DHT22;28397;44.552;-0.848;2023-06-10T13:34:07;28.40;99.90
42743;DHT22;28397;44.552;-0.848;2023-06-10T13:36:33;28.60;99.90
42743;DHT22;28397;44.552;-0.848;2023-06-10T13:38:59;28.60;99.90
42743;DHT22;28397;44.552;-0.848;2023-06-10T13:41:24;28.60;99.90
42743;DHT22;28397;44.552;-0.848;2023-06-10T13:43:50;28.70;99.90
42743;DHT22;28397;44.552;-0.848;2023-06-10T13:46:16;28.80;99.90
42743;DHT22;28397;44.552;-0.848;2023-06-10T13:48:41;28.70;99.90
42743;DHT22;28397;44.552;-0.848;2023-06-10T13:51:07;28.90;99.90
42743;DHT22;28397;44.552;-0.848;2023-06-10T13:53:34;28.80;99.90
42743;DHT22;28397;44.552;-0.848;2023-06-10T13:56:00;28.90;99.90
42743;DHT22;28397;44.552;-0.848;2023-06-10T13:58:26;29.10;99.90
42743;DHT22;28397;44.552;-0.848;2023-06-10T14:00:52;28.80;99.90
42743;DHT22;28397;44.552;-0.848;2023-06-10T14:03:18;29.00;99.90
42743;DHT22;28397;44.552;-0.848;2023-06-10T14:05:44;29.10;99.90
42743;DHT22;28397;44.552;-0.848;2023-06-10T14:08:09;28.90;99.90
42743;DHT22;28397;44.552;-0.848;2023-06-10T14:10:35;29.00;99.90
42743;DHT22;28397;44.552;-0.848;2023-06-10T14:13:01;28.90;99.90
42743;DHT22;28397;44.552;-0.848;2023-06-10T14:15:26;28.80;99.90
42743;DHT22;28397;44.552;-0.848;2023-06-10T14:17:52;28.80;99.90
42743;DHT22;28397;44.552;-0.848;2023-06-10T14:20:18;28.80;99.90
42743;DHT22;28397;44.552;-0.848;2023-06-10T14:22:43;28.90;99.90
42743;DHT22;28397;44.552;-0.848;2023-06-10T14:25:09;29.20;99.90
42743;DHT22;28397;44.552;-0.848;2023-06-10T14:27:36;29.30;99.90
42743;DHT22;28397;44.552;-0.848;2023-06-10T14:30:02;29.30;99.90
42743;DHT22;28397;44.552;-0.848;2023-06-10T14:32:28;29.20;99.90
42743;DHT22;28397;44.552;-0.848;2023-06-10T14:34:54;29.40;99.90
42743;DHT22;28397;44.552;-0.848;2023-06-10T14:37:20;29.40;99.90
42743;DHT22;28397;44.552;-0.848;2023-06-10T14:39:45;29.60;99.90
42743;DHT22;28397;44.552;-0.848;2023-06-10T14:42:11;29.40;99.90
42743;DHT22;28397;44.552;-0.848;2023-06-10T14:44:37;29.50;99.90
42743;DHT22;28397;44.552;-0.848;2023-06-10T14:47:02;29.60;99.90
42743;DHT22;28397;44.552;-0.848;2023-06-10T14:49:28;29.60;99.90
42743;DHT22;28397;44.552;-0.848;2023-06-10T14:51:54;29.30;99.90
42743;DHT22;28397;44.552;-0.848;2023-06-10T14:54:20;29.20;99.90
42743;DHT22;28397;44.552;-0.848;2023-06-10T14:56:45;29.10;99.90
42743;DHT22;28397;44.552;-0.848;2023-06-10T14:59:11;29.10;99.90
42743;DHT22;28397;44.552;-0.848;2023-06-10T15:01:36;29.20;99.90
42743;DHT22;28397;44.552;-0.848;2023-06-10T15:04:02;29.20;99.90
42743;DHT22;28397;44.552;-0.848;2023-06-10T15:06:28;29.20;99.90
42743;DHT22;28397;44.552;-0.848;2023-06-10T15:08:53;29.10;99.90
42743;DHT22;28397;44.552;-0.848;2023-06-10T15:11:19;29.20;99.90
42743;DHT22;28397;44.552;-0.848;2023-06-10T15:13:46;29.40;99.90
42743;DHT22;28397;44.552;-0.848;2023-06-10T15:16:12;29.20;99.90
42743;DHT22;28397;44.552;-0.848;2023-06-10T15:18:38;29.10;99.90
42743;DHT22;28397;44.552;-0.848;2023-06-10T15:21:03;29.10;99.90
42743;DHT22;28397;44.552;-0.848;2023-06-10T15:23:29;29.10;99.90
42743;DHT22;28397;44.552;-0.848;2023-06-10T15:25:55;29.10;99.90
42743;DHT22;28397;44.552;-0.848;2023-06-10T15:28:20;29.20;99.90
42743;DHT22;28397;44.552;-0.848;2023-06-10T15:30:46;29.10;99.90
42743;DHT22;28397;44.552;-0.848;2023-06-10T15:33:12;29.20;99.90
42743;DHT22;28397;44.552;-0.848;2023-06-10T15:35:37;29.30;99.90
42743;DHT22;28397;44.552;-0.848;2023-06-10T15:38:03;29.30;99.90